PWSweather.com
Personal Weather Stations
Station Observations
KCTHAMDEN
Dunbar Hill, Hamden, CT 06514

Dunbar HillHamden, CT 06514

Lat: 41.365437, Lon: -72.956532

Elevation: 200

Station Type: Davis Vantage Pro2+

www.hamdenweather.com

High Low Average
Temperature 87.0°F30.6°C 64.6°F18.1°C 75.1°F23.9°C
Dew Point 68.9°F20.5°C 61.9°F16.6°C 65.7°F18.7°C
Winds 5.1 mph 8.2 kmh Calm Calm 1.0 mph S1.6 kmh S
Wind Gusts 14.0 mph22.5 kmh -- 3.0 mph4.8 kmh
Humidity 92% 44% 74%
Pressure 30.08 in1018.6 mb 29.84 in1010.5 mb -
Precipitation 0.00 in0.0 mm - -
Hour Temp Dew Point Humidity Winds Wind Gusts Pressure Precip Precip Rate Daily Precip Total
12:00 AM 71.6°F22.0°C 66.2°F19.0°C 83% Calm Calm -- 29.87 in1011.5 mb - 0.00 in0.0 mm 0.00 in0.0 mm
12:15 AM 71.3°F21.8°C 66.6°F19.2°C 85% 0.9 mph S1.4 kmh S 1.0 mph1.6 kmh 29.86 in1011.2 mb - 0.00 in0.0 mm 0.00 in0.0 mm
12:30 AM 71.1°F21.7°C 66.7°F19.3°C 86% Calm Calm -- 29.86 in1011.2 mb - 0.00 in0.0 mm 0.00 in0.0 mm
12:45 AM 70.9°F21.6°C 66.5°F19.2°C 86% Calm Calm -- 29.86 in1011.2 mb - 0.00 in0.0 mm 0.00 in0.0 mm
01:00 AM 70.7°F21.5°C 66.3°F19.1°C 86% Calm Calm -- 29.85 in1010.8 mb - 0.00 in0.0 mm 0.00 in0.0 mm
01:15 AM 70.5°F21.4°C 66.4°F19.1°C 87% Calm Calm -- 29.85 in1010.8 mb - 0.00 in0.0 mm 0.00 in0.0 mm
01:30 AM 70.2°F21.2°C 66.5°F19.2°C 88% Calm Calm -- 29.85 in1010.8 mb - 0.00 in0.0 mm 0.00 in0.0 mm
01:45 AM 70.1°F21.2°C 66.4°F19.1°C 88% Calm Calm -- 29.85 in1010.8 mb - 0.00 in0.0 mm 0.00 in0.0 mm
02:00 AM 69.9°F21.1°C 66.2°F19.0°C 88% Calm Calm -- 29.85 in1010.8 mb - 0.00 in0.0 mm 0.00 in0.0 mm
02:15 AM 69.7°F20.9°C 66.3°F19.1°C 89% Calm Calm -- 29.84 in1010.5 mb - 0.00 in0.0 mm 0.00 in0.0 mm
02:30 AM 69.4°F20.8°C 66.0°F18.9°C 89% Calm Calm -- 29.84 in1010.5 mb - 0.00 in0.0 mm 0.00 in0.0 mm
02:45 AM 69.3°F20.7°C 65.9°F18.8°C 89% Calm Calm -- 29.84 in1010.5 mb - 0.00 in0.0 mm 0.00 in0.0 mm
03:00 AM 69.1°F20.6°C 66.0°F18.9°C 90% Calm Calm -- 29.84 in1010.5 mb - 0.00 in0.0 mm 0.00 in0.0 mm
03:15 AM 69.1°F20.6°C 66.0°F18.9°C 90% Calm Calm -- 29.84 in1010.5 mb - 0.00 in0.0 mm 0.00 in0.0 mm
03:30 AM 69.3°F20.7°C 65.9°F18.8°C 89% 0.8 mph E1.3 kmh E 4.0 mph6.4 kmh 29.84 in1010.5 mb - 0.00 in0.0 mm 0.00 in0.0 mm
03:45 AM 70.2°F21.2°C 65.5°F18.6°C 85% 0.8 mph E1.3 kmh E 1.0 mph1.6 kmh 29.84 in1010.5 mb - 0.00 in0.0 mm 0.00 in0.0 mm
04:00 AM 71.3°F21.8°C 65.2°F18.4°C 81% 0.7 mph NE1.1 kmh NE 3.0 mph4.8 kmh 29.85 in1010.8 mb - 0.00 in0.0 mm 0.00 in0.0 mm
04:15 AM 72.1°F22.3°C 65.2°F18.4°C 79% 1.7 mph N2.7 kmh N 3.0 mph4.8 kmh 29.85 in1010.8 mb - 0.00 in0.0 mm 0.00 in0.0 mm
04:30 AM 72.5°F22.5°C 64.8°F18.2°C 77% 2.5 mph WSW4.0 kmh WSW 3.0 mph4.8 kmh 29.86 in1011.2 mb - 0.00 in0.0 mm 0.00 in0.0 mm
04:45 AM 72.5°F22.5°C 64.5°F18.1°C 76% 1.7 mph WSW2.7 kmh WSW 4.0 mph6.4 kmh 29.86 in1011.2 mb - 0.00 in0.0 mm 0.00 in0.0 mm
05:00 AM 72.1°F22.3°C 64.5°F18.1°C 77% 1.8 mph WSW2.9 kmh WSW 3.0 mph4.8 kmh 29.87 in1011.5 mb - 0.00 in0.0 mm 0.00 in0.0 mm
05:15 AM 71.7°F22.1°C 64.8°F18.2°C 79% Calm Calm -- 29.87 in1011.5 mb - 0.00 in0.0 mm 0.00 in0.0 mm
05:30 AM 71.2°F21.8°C 64.4°F18.0°C 79% 1.5 mph N2.4 kmh N 3.0 mph4.8 kmh 29.88 in1011.9 mb - 0.00 in0.0 mm 0.00 in0.0 mm
05:45 AM 70.9°F21.6°C 64.5°F18.1°C 80% 0.9 mph NE1.4 kmh NE 1.0 mph1.6 kmh 29.88 in1011.9 mb - 0.00 in0.0 mm 0.00 in0.0 mm
06:00 AM 70.7°F21.5°C 64.6°F18.1°C 81% 1.5 mph 2.4 kmh 3.0 mph4.8 kmh 29.89 in1012.2 mb - 0.00 in0.0 mm 0.00 in0.0 mm
06:15 AM 70.4°F21.3°C 64.6°F18.1°C 82% 1.0 mph N1.6 kmh N 2.0 mph3.2 kmh 29.89 in1012.2 mb - 0.00 in0.0 mm 0.00 in0.0 mm
06:30 AM 70.4°F21.3°C 64.6°F18.1°C 82% 1.1 mph NNE1.8 kmh NNE 3.0 mph4.8 kmh 29.90 in1012.5 mb - 0.00 in0.0 mm 0.00 in0.0 mm
06:45 AM 70.4°F21.3°C 65.0°F18.3°C 83% 1.6 mph NE2.6 kmh NE 4.0 mph6.4 kmh 29.90 in1012.5 mb - 0.00 in0.0 mm 0.00 in0.0 mm
07:00 AM 70.5°F21.4°C 65.1°F18.4°C 83% 2.1 mph W3.4 kmh W 4.0 mph6.4 kmh 29.90 in1012.5 mb - 0.00 in0.0 mm 0.00 in0.0 mm
07:15 AM 71.2°F21.8°C 65.8°F18.8°C 83% 0.7 mph WSW1.1 kmh WSW 1.0 mph1.6 kmh 29.90 in1012.5 mb - 0.00 in0.0 mm 0.00 in0.0 mm
07:30 AM 72.5°F22.5°C 66.3°F19.1°C 81% 2.4 mph WSW3.9 kmh WSW 5.0 mph8.0 kmh 29.91 in1012.9 mb - 0.00 in0.0 mm 0.00 in0.0 mm
07:45 AM 73.4°F23.0°C 66.9°F19.4°C 80% 2.3 mph W3.7 kmh W 7.0 mph11.3 kmh 29.92 in1013.2 mb - 0.00 in0.0 mm 0.00 in0.0 mm
08:00 AM 74.2°F23.4°C 66.9°F19.4°C 78% 5.1 mph NE8.2 kmh NE 8.0 mph12.9 kmh 29.92 in1013.2 mb - 0.00 in0.0 mm 0.00 in0.0 mm
08:15 AM 75.3°F24.1°C 67.2°F19.6°C 76% 4.4 mph NE7.1 kmh NE 10.0 mph16.1 kmh 29.92 in1013.2 mb - 0.00 in0.0 mm 0.00 in0.0 mm
08:30 AM 75.3°F24.1°C 67.6°F19.8°C 77% 1.4 mph NE2.3 kmh NE 4.0 mph6.4 kmh 29.93 in1013.5 mb - 0.00 in0.0 mm 0.00 in0.0 mm
08:45 AM 75.9°F24.4°C 67.4°F19.7°C 75% 2.3 mph NNE3.7 kmh NNE 5.0 mph8.0 kmh 29.93 in1013.5 mb - 0.00 in0.0 mm 0.00 in0.0 mm
09:00 AM 76.5°F24.7°C 68.0°F20.0°C 75% 2.3 mph NE3.7 kmh NE 7.0 mph11.3 kmh 29.93 in1013.5 mb - 0.00 in0.0 mm 0.00 in0.0 mm
09:15 AM 77.3°F25.2°C 67.6°F19.8°C 72% 1.9 mph SW3.1 kmh SW 3.0 mph4.8 kmh 29.94 in1013.9 mb - 0.00 in0.0 mm 0.00 in0.0 mm
09:30 AM 77.9°F25.5°C 68.1°F20.1°C 72% 3.9 mph E6.3 kmh E 5.0 mph8.0 kmh 29.94 in1013.9 mb - 0.00 in0.0 mm 0.00 in0.0 mm
09:45 AM 78.5°F25.8°C 67.9°F19.9°C 70% 3.8 mph E6.1 kmh E 6.0 mph9.7 kmh 29.94 in1013.9 mb - 0.00 in0.0 mm 0.00 in0.0 mm
10:00 AM 78.9°F26.1°C 67.4°F19.7°C 68% 1.6 mph ENE2.6 kmh ENE 4.0 mph6.4 kmh 29.94 in1013.9 mb - 0.00 in0.0 mm 0.00 in0.0 mm
10:15 AM 79.1°F26.2°C 68.1°F20.1°C 69% 4.5 mph NW7.2 kmh NW 14.0 mph22.5 kmh 29.94 in1013.9 mb - 0.00 in0.0 mm 0.00 in0.0 mm
10:30 AM 79.0°F26.1°C 67.1°F19.5°C 67% 3.5 mph N5.6 kmh N 4.0 mph6.4 kmh 29.94 in1013.9 mb - 0.00 in0.0 mm 0.00 in0.0 mm
10:45 AM 79.4°F26.3°C 67.5°F19.7°C 67% 2.0 mph E3.2 kmh E 3.0 mph4.8 kmh 29.94 in1013.9 mb - 0.00 in0.0 mm 0.00 in0.0 mm
11:00 AM 80.0°F26.7°C 68.9°F20.5°C 69% 4.8 mph E7.7 kmh E 7.0 mph11.3 kmh 29.94 in1013.9 mb - 0.00 in0.0 mm 0.00 in0.0 mm
11:15 AM 80.6°F27.0°C 68.1°F20.1°C 66% 3.3 mph WSW5.3 kmh WSW 9.0 mph14.5 kmh 29.94 in1013.9 mb - 0.00 in0.0 mm 0.00 in0.0 mm
11:30 AM 81.2°F27.3°C 68.3°F20.2°C 65% 2.7 mph WSW4.3 kmh WSW 5.0 mph8.0 kmh 29.94 in1013.9 mb - 0.00 in0.0 mm 0.00 in0.0 mm
11:45 AM 80.4°F26.9°C 67.1°F19.5°C 64% 1.9 mph NNE3.1 kmh NNE 6.0 mph9.7 kmh 29.94 in1013.9 mb - 0.00 in0.0 mm 0.00 in0.0 mm
12:00 PM 79.8°F26.6°C 67.9°F19.9°C 67% 2.7 mph SW4.3 kmh SW 4.0 mph6.4 kmh 29.94 in1013.9 mb - 0.00 in0.0 mm 0.00 in0.0 mm
12:15 PM 79.9°F26.6°C 68.3°F20.2°C 68% 1.2 mph ENE1.9 kmh ENE 4.0 mph6.4 kmh 29.95 in1014.2 mb - 0.00 in0.0 mm 0.00 in0.0 mm
12:30 PM 79.9°F26.6°C 67.5°F19.7°C 66% 1.9 mph ENE3.1 kmh ENE 2.0 mph3.2 kmh 29.95 in1014.2 mb - 0.00 in0.0 mm 0.00 in0.0 mm
12:45 PM 80.6°F27.0°C 68.6°F20.3°C 67% 2.2 mph NE3.5 kmh NE 6.0 mph9.7 kmh 29.94 in1013.9 mb - 0.00 in0.0 mm 0.00 in0.0 mm
01:00 PM 81.4°F27.4°C 67.1°F19.5°C 62% 3.0 mph WSW4.8 kmh WSW 7.0 mph11.3 kmh 29.94 in1013.9 mb - 0.00 in0.0 mm 0.00 in0.0 mm
01:15 PM 81.8°F27.7°C 66.5°F19.2°C 60% 2.7 mph N4.3 kmh N 4.0 mph6.4 kmh 29.94 in1013.9 mb - 0.00 in0.0 mm 0.00 in0.0 mm
01:30 PM 81.6°F27.6°C 66.3°F19.1°C 60% 3.7 mph WNW6.0 kmh WNW 5.0 mph8.0 kmh 29.94 in1013.9 mb - 0.00 in0.0 mm 0.00 in0.0 mm
01:45 PM 81.6°F27.6°C 68.7°F20.4°C 65% 3.2 mph WSW5.1 kmh WSW 6.0 mph9.7 kmh 29.94 in1013.9 mb - 0.00 in0.0 mm 0.00 in0.0 mm
02:00 PM 82.7°F28.2°C 65.5°F18.6°C 56% 1.9 mph WSW3.1 kmh WSW 4.0 mph6.4 kmh 29.94 in1013.9 mb - 0.00 in0.0 mm 0.00 in0.0 mm
02:15 PM 84.1°F28.9°C 66.2°F19.0°C 55% 0.2 mph ENE0.3 kmh ENE 1.0 mph1.6 kmh 29.94 in1013.9 mb - 0.00 in0.0 mm 0.00 in0.0 mm
02:30 PM 84.7°F29.3°C 65.7°F18.7°C 53% 4.1 mph NE6.6 kmh NE 8.0 mph12.9 kmh 29.93 in1013.5 mb - 0.00 in0.0 mm 0.00 in0.0 mm
02:45 PM 85.2°F29.6°C 65.0°F18.3°C 51% 2.2 mph N3.5 kmh N 4.0 mph6.4 kmh 29.93 in1013.5 mb - 0.00 in0.0 mm 0.00 in0.0 mm
03:00 PM 85.4°F29.7°C 64.1°F17.8°C 49% 3.5 mph WSW5.6 kmh WSW 8.0 mph12.9 kmh 29.93 in1013.5 mb - 0.00 in0.0 mm 0.00 in0.0 mm
03:15 PM 85.5°F29.7°C 64.2°F17.9°C 49% 4.5 mph N7.2 kmh N 7.0 mph11.3 kmh 29.93 in1013.5 mb - 0.00 in0.0 mm 0.00 in0.0 mm
03:30 PM 85.8°F29.9°C 63.8°F17.7°C 48% 3.6 mph SW5.8 kmh SW 8.0 mph12.9 kmh 29.93 in1013.5 mb - 0.00 in0.0 mm 0.00 in0.0 mm
03:45 PM 86.4°F30.2°C 65.0°F18.3°C 49% 3.9 mph WSW6.3 kmh WSW 6.0 mph9.7 kmh 29.93 in1013.5 mb - 0.00 in0.0 mm 0.00 in0.0 mm
04:00 PM 87.0°F30.6°C 64.9°F18.3°C 48% 2.1 mph ESE3.4 kmh ESE 4.0 mph6.4 kmh 29.93 in1013.5 mb - 0.00 in0.0 mm 0.00 in0.0 mm
04:15 PM 86.4°F30.2°C 61.9°F16.6°C 44% 2.5 mph WSW4.0 kmh WSW 4.0 mph6.4 kmh 29.93 in1013.5 mb - 0.00 in0.0 mm 0.00 in0.0 mm
04:30 PM 84.9°F29.4°C 64.8°F18.2°C 51% 1.3 mph WSW2.1 kmh WSW 2.0 mph3.2 kmh 29.93 in1013.5 mb - 0.00 in0.0 mm 0.00 in0.0 mm
04:45 PM 84.1°F28.9°C 64.0°F17.8°C 51% 0.8 mph NNW1.3 kmh NNW 2.0 mph3.2 kmh 29.94 in1013.9 mb - 0.00 in0.0 mm 0.00 in0.0 mm
05:00 PM 83.8°F28.8°C 66.9°F19.4°C 57% 2.0 mph N3.2 kmh N 2.0 mph3.2 kmh 29.95 in1014.2 mb - 0.00 in0.0 mm 0.00 in0.0 mm
05:15 PM 80.6°F27.0°C 65.9°F18.8°C 61% 1.8 mph NE2.9 kmh NE 7.0 mph11.3 kmh 29.96 in1014.6 mb - 0.00 in0.0 mm 0.00 in0.0 mm
05:30 PM 78.1°F25.6°C 65.4°F18.6°C 65% 0.9 mph WSW1.4 kmh WSW 2.0 mph3.2 kmh 29.96 in1014.6 mb - 0.00 in0.0 mm 0.00 in0.0 mm
05:45 PM 76.5°F24.7°C 66.4°F19.1°C 71% 0.1 mph NNE0.2 kmh NNE 1.0 mph1.6 kmh 29.96 in1014.6 mb - 0.00 in0.0 mm 0.00 in0.0 mm
06:00 PM 75.6°F24.2°C 67.1°F19.5°C 75% Calm Calm -- 29.96 in1014.6 mb - 0.00 in0.0 mm 0.00 in0.0 mm
06:15 PM 75.0°F23.9°C 66.9°F19.4°C 76% 0.7 mph N1.1 kmh N 1.0 mph1.6 kmh 29.97 in1014.9 mb - 0.00 in0.0 mm 0.00 in0.0 mm
06:30 PM 74.8°F23.8°C 67.1°F19.5°C 77% 0.3 mph N0.5 kmh N 1.0 mph1.6 kmh 29.97 in1014.9 mb - 0.00 in0.0 mm 0.00 in0.0 mm
06:45 PM 75.1°F23.9°C 66.7°F19.3°C 75% 0.4 mph NNE0.6 kmh NNE -- 29.97 in1014.9 mb - 0.00 in0.0 mm 0.00 in0.0 mm
07:00 PM 75.9°F24.4°C 66.2°F19.0°C 72% 1.6 mph NE2.6 kmh NE 2.0 mph3.2 kmh 29.97 in1014.9 mb - 0.00 in0.0 mm 0.00 in0.0 mm
07:15 PM 76.5°F24.7°C 66.0°F18.9°C 70% 0.6 mph NNE1.0 kmh NNE 3.0 mph4.8 kmh 29.97 in1014.9 mb - 0.00 in0.0 mm 0.00 in0.0 mm
07:30 PM 76.7°F24.8°C 65.3°F18.5°C 68% 1.4 mph W2.3 kmh W 3.0 mph4.8 kmh 29.98 in1015.2 mb - 0.00 in0.0 mm 0.00 in0.0 mm
07:45 PM 76.6°F24.8°C 65.7°F18.7°C 69% 1.1 mph WSW1.8 kmh WSW 2.0 mph3.2 kmh 29.98 in1015.2 mb - 0.00 in0.0 mm 0.00 in0.0 mm
08:00 PM 76.2°F24.6°C 65.7°F18.7°C 70% Calm Calm 1.0 mph1.6 kmh 29.99 in1015.6 mb - 0.00 in0.0 mm 0.00 in0.0 mm
08:15 PM 75.2°F24.0°C 65.1°F18.4°C 71% Calm Calm -- 29.99 in1015.6 mb - 0.00 in0.0 mm 0.00 in0.0 mm
08:30 PM 74.4°F23.6°C 66.0°F18.9°C 75% Calm Calm -- 29.99 in1015.6 mb - 0.00 in0.0 mm 0.00 in0.0 mm
08:45 PM 73.2°F22.9°C 64.8°F18.2°C 75% Calm Calm -- 30.00 in1015.9 mb - 0.00 in0.0 mm 0.00 in0.0 mm
09:00 PM 72.0°F22.2°C 65.1°F18.4°C 79% 1.6 mph WSW2.6 kmh WSW 2.0 mph3.2 kmh 30.01 in1016.3 mb - 0.00 in0.0 mm 0.00 in0.0 mm
09:15 PM 70.9°F21.6°C 65.1°F18.4°C 82% Calm Calm -- 30.02 in1016.6 mb - 0.00 in0.0 mm 0.00 in0.0 mm
09:30 PM 70.3°F21.3°C 64.6°F18.1°C 82% Calm Calm -- 30.03 in1016.9 mb - 0.00 in0.0 mm 0.00 in0.0 mm
09:45 PM 69.7°F20.9°C 64.3°F17.9°C 83% Calm Calm -- 30.03 in1016.9 mb - 0.00 in0.0 mm 0.00 in0.0 mm
10:00 PM 69.3°F20.7°C 64.3°F17.9°C 84% Calm Calm -- 30.04 in1017.3 mb - 0.00 in0.0 mm 0.00 in0.0 mm
10:15 PM 68.9°F20.5°C 64.5°F18.1°C 86% Calm Calm -- 30.04 in1017.3 mb - 0.00 in0.0 mm 0.00 in0.0 mm
10:30 PM 68.5°F20.3°C 64.2°F17.9°C 86% Calm Calm -- 30.05 in1017.6 mb - 0.00 in0.0 mm 0.00 in0.0 mm
10:45 PM 68.1°F20.1°C 63.4°F17.4°C 85% Calm Calm -- 30.05 in1017.6 mb - 0.00 in0.0 mm 0.00 in0.0 mm
11:00 PM 67.6°F19.8°C 63.2°F17.3°C 86% Calm Calm -- 30.05 in1017.6 mb - 0.00 in0.0 mm 0.00 in0.0 mm
11:15 PM 67.0°F19.4°C 62.7°F17.1°C 86% Calm Calm -- 30.05 in1017.6 mb - 0.00 in0.0 mm 0.00 in0.0 mm
11:30 PM 66.5°F19.2°C 62.8°F17.1°C 88% Calm Calm -- 30.05 in1017.6 mb - 0.00 in0.0 mm 0.00 in0.0 mm
11:45 PM 66.0°F18.9°C 62.7°F17.1°C 89% Calm Calm -- 30.06 in1017.9 mb - 0.00 in0.0 mm 0.00 in0.0 mm